Alma, Michigan
Current Conditions -  °F | °C
As of 3:33 AM on Tuesday 27 Jan 2015 (Local Time) from KAMN Reporting Station
Broken Clouds Broken Clouds  
Wind Chill: 14°   Ceiling: 8500
Heat Index: 14°   Visibility: 10mi
Dew Point: 11°   Wind: 3mph
Humidity: 89%   Direction: 350°N
Pressure: 30.03"   Gusts: NA
Location:  43.38°N, 84.66°W
Report Text: KAMN 270833Z AUTO 35003KT 10SM BKN085 BKN120 M10/M11 A3003 RMK AO2 T11001115
Loading
Personal Weather Stations






























Interactive Weather Map New forecast layout! Learn more

10-Day Weather Forecast

Advertisements
Track Severe Weather on mobile